sensor_id;sensor_type;location;lat;lon;timestamp;pressure;altitude;pressure_sealevel;temperature;humidity
19884;BME280;10104;50.732;10.174;2023-05-02T00:00:20;97838.44;;;11.69;76.98
19884;BME280;10104;50.732;10.174;2023-05-02T00:02:41;97843.81;;;11.75;76.13
19884;BME280;10104;50.732;10.174;2023-05-02T00:05:04;97843.84;;;11.82;76.08
19884;BME280;10104;50.732;10.174;2023-05-02T00:07:26;97842.50;;;11.65;78.88
19884;BME280;10104;50.732;10.174;2023-05-02T00:09:48;97839.66;;;11.73;77.34
19884;BME280;10104;50.732;10.174;2023-05-02T00:12:09;97833.75;;;11.71;77.04
19884;BME280;10104;50.732;10.174;2023-05-02T00:14:31;97834.09;;;11.61;78.73
19884;BME280;10104;50.732;10.174;2023-05-02T00:16:53;97841.69;;;11.64;78.54
19884;BME280;10104;50.732;10.174;2023-05-02T00:19:14;97839.66;;;11.73;77.23
19884;BME280;10104;50.732;10.174;2023-05-02T00:21:36;97840.25;;;11.68;78.02
19884;BME280;10104;50.732;10.174;2023-05-02T00:23:57;97841.78;;;11.78;76.95
19884;BME280;10104;50.732;10.174;2023-05-02T00:26:19;97839.25;;;11.69;78.33
19884;BME280;10104;50.732;10.174;2023-05-02T00:28:41;97834.78;;;11.70;78.30
19884;BME280;10104;50.732;10.174;2023-05-02T00:31:05;97842.91;;;11.68;78.46
19884;BME280;10104;50.732;10.174;2023-05-02T00:33:27;97836.47;;;11.78;76.85
19884;BME280;10104;50.732;10.174;2023-05-02T00:35:48;97843.06;;;11.54;79.94
19884;BME280;10104;50.732;10.174;2023-05-02T00:38:11;97842.31;;;11.66;77.97
19884;BME280;10104;50.732;10.174;2023-05-02T00:40:46;97845.19;;;11.71;76.94
19884;BME280;10104;50.732;10.174;2023-05-02T00:43:08;97840.13;;;11.77;76.28
19884;BME280;10104;50.732;10.174;2023-05-02T00:45:29;97845.66;;;11.82;76.47
19884;BME280;10104;50.732;10.174;2023-05-02T00:47:51;97843.06;;;11.54;80.00
19884;BME280;10104;50.732;10.174;2023-05-02T00:50:12;97843.63;;;11.49;80.55
19884;BME280;10104;50.732;10.174;2023-05-02T00:52:34;97839.81;;;11.58;78.04
19884;BME280;10104;50.732;10.174;2023-05-02T00:54:56;97842.00;;;11.55;77.96
19884;BME280;10104;50.732;10.174;2023-05-02T00:57:18;97838.16;;;11.57;77.06
19884;BME280;10104;50.732;10.174;2023-05-02T00:59:39;97836.38;;;11.64;76.42
19884;BME280;10104;50.732;10.174;2023-05-02T01:05:01;97846.53;;;11.26;80.73
19884;BME280;10104;50.732;10.174;2023-05-02T01:07:51;97863.44;;;11.25;80.13
19884;BME280;10104;50.732;10.174;2023-05-02T01:13:06;97861.63;;;11.26;79.98
19884;BME280;10104;50.732;10.174;2023-05-02T01:15:29;97860.97;;;11.24;79.82
19884;BME280;10104;50.732;10.174;2023-05-02T01:17:53;97855.72;;;11.30;78.40
19884;BME280;10104;50.732;10.174;2023-05-02T01:20:20;97854.13;;;11.36;77.96
19884;BME280;10104;50.732;10.174;2023-05-02T01:22:43;97866.56;;;11.29;78.36
19884;BME280;10104;50.732;10.174;2023-05-02T01:25:19;97865.97;;;11.33;77.22
19884;BME280;10104;50.732;10.174;2023-05-02T01:30:33;97870.75;;;11.17;79.34
19884;BME280;10104;50.732;10.174;2023-05-02T01:32:57;97873.69;;;11.28;77.88
19884;BME280;10104;50.732;10.174;2023-05-02T01:35:21;97871.25;;;11.33;77.38
19884;BME280;10104;50.732;10.174;2023-05-02T01:37:44;97875.88;;;11.25;78.73
19884;BME280;10104;50.732;10.174;2023-05-02T01:40:08;97876.13;;;11.30;78.01
19884;BME280;10104;50.732;10.174;2023-05-02T01:42:31;97874.75;;;11.34;77.34
19884;BME280;10104;50.732;10.174;2023-05-02T01:44:54;97879.44;;;11.39;77.12
19884;BME280;10104;50.732;10.174;2023-05-02T01:47:17;97882.50;;;11.35;78.29
19884;BME280;10104;50.732;10.174;2023-05-02T01:49:41;97880.66;;;11.08;82.22
19884;BME280;10104;50.732;10.174;2023-05-02T01:52:06;97884.88;;;11.03;82.98
19884;BME280;10104;50.732;10.174;2023-05-02T01:54:29;97879.19;;;11.06;81.32
19884;BME280;10104;50.732;10.174;2023-05-02T01:56:54;97892.44;;;11.06;82.99
19884;BME280;10104;50.732;10.174;2023-05-02T01:59:18;97889.19;;;11.04;82.54
19884;BME280;10104;50.732;10.174;2023-05-02T02:01:42;97896.84;;;10.99;82.94
19884;BME280;10104;50.732;10.174;2023-05-02T02:04:07;97901.03;;;11.08;82.30
19884;BME280;10104;50.732;10.174;2023-05-02T02:06:29;97901.50;;;11.18;80.96
19884;BME280;10104;50.732;10.174;2023-05-02T02:08:52;97903.34;;;11.17;82.03
19884;BME280;10104;50.732;10.174;2023-05-02T02:11:16;97899.78;;;11.04;83.73
19884;BME280;10104;50.732;10.174;2023-05-02T02:13:45;97904.38;;;11.16;81.55
19884;BME280;10104;50.732;10.174;2023-05-02T02:16:11;97903.91;;;11.13;82.41
19884;BME280;10104;50.732;10.174;2023-05-02T02:18:35;97901.91;;;11.15;81.95
19884;BME280;10104;50.732;10.174;2023-05-02T02:20:58;97913.38;;;11.22;81.21
19884;BME280;10104;50.732;10.174;2023-05-02T02:23:24;97906.69;;;11.26;80.23
19884;BME280;10104;50.732;10.174;2023-05-02T02:25:49;97907.75;;;11.31;79.77
19884;BME280;10104;50.732;10.174;2023-05-02T02:28:12;97916.47;;;11.25;80.94
19884;BME280;10104;50.732;10.174;2023-05-02T02:30:34;97910.63;;;11.36;79.67
19884;BME280;10104;50.732;10.174;2023-05-02T02:32:55;97913.16;;;11.45;79.20
19884;BME280;10104;50.732;10.174;2023-05-02T02:35:17;97921.06;;;11.38;81.23
19884;BME280;10104;50.732;10.174;2023-05-02T02:37:51;97909.50;;;11.46;79.48
19884;BME280;10104;50.732;10.174;2023-05-02T02:40:22;97917.63;;;11.44;80.57
19884;BME280;10104;50.732;10.174;2023-05-02T02:43:12;97914.59;;;11.47;79.48
19884;BME280;10104;50.732;10.174;2023-05-02T02:48:14;97921.69;;;11.40;80.60
19884;BME280;10104;50.732;10.174;2023-05-02T02:53:26;97920.09;;;11.46;79.93
19884;BME280;10104;50.732;10.174;2023-05-02T02:55:59;97925.41;;;11.46;79.51
19884;BME280;10104;50.732;10.174;2023-05-02T02:58:45;97934.75;;;11.42;80.24
19884;BME280;10104;50.732;10.174;2023-05-02T03:01:10;97932.09;;;11.42;79.96
19884;BME280;10104;50.732;10.174;2023-05-02T03:03:36;97927.59;;;11.42;79.41
19884;BME280;10104;50.732;10.174;2023-05-02T03:06:00;97934.16;;;11.46;79.06
19884;BME280;10104;50.732;10.174;2023-05-02T03:08:24;97933.53;;;11.44;79.03
19884;BME280;10104;50.732;10.174;2023-05-02T03:10:46;97941.88;;;11.41;79.02
19884;BME280;10104;50.732;10.174;2023-05-02T03:13:07;97940.25;;;11.40;79.15
19884;BME280;10104;50.732;10.174;2023-05-02T03:16:05;97949.56;;;11.36;78.62
19884;BME280;10104;50.732;10.174;2023-05-02T03:18:31;97947.13;;;11.34;80.40
19884;BME280;10104;50.732;10.174;2023-05-02T03:20:53;97944.47;;;11.34;79.83
19884;BME280;10104;50.732;10.174;2023-05-02T03:23:15;97951.50;;;11.21;81.85
19884;BME280;10104;50.732;10.174;2023-05-02T03:25:36;97951.94;;;11.24;80.49
19884;BME280;10104;50.732;10.174;2023-05-02T03:27:59;97960.84;;;11.17;81.19
19884;BME280;10104;50.732;10.174;2023-05-02T03:30:20;97948.91;;;11.27;79.89
19884;BME280;10104;50.732;10.174;2023-05-02T03:32:42;97950.97;;;11.32;79.25
19884;BME280;10104;50.732;10.174;2023-05-02T03:35:04;97953.69;;;11.17;80.12
19884;BME280;10104;50.732;10.174;2023-05-02T03:37:25;97941.47;;;11.16;79.51
19884;BME280;10104;50.732;10.174;2023-05-02T03:39:47;97952.81;;;10.89;82.26
19884;BME280;10104;50.732;10.174;2023-05-02T03:42:08;97951.88;;;10.97;80.87
19884;BME280;10104;50.732;10.174;2023-05-02T03:44:29;97959.69;;;10.83;81.74
19884;BME280;10104;50.732;10.174;2023-05-02T03:46:51;97955.13;;;10.99;80.22
19884;BME280;10104;50.732;10.174;2023-05-02T03:49:12;97959.44;;;11.00;79.33
19884;BME280;10104;50.732;10.174;2023-05-02T03:51:34;97959.91;;;11.03;78.74
19884;BME280;10104;50.732;10.174;2023-05-02T03:53:56;97969.09;;;11.07;77.87
19884;BME280;10104;50.732;10.174;2023-05-02T03:56:18;97966.91;;;11.11;77.67
19884;BME280;10104;50.732;10.174;2023-05-02T03:58:40;97975.88;;;11.10;77.08
19884;BME280;10104;50.732;10.174;2023-05-02T04:01:02;97982.53;;;11.06;77.05
19884;BME280;10104;50.732;10.174;2023-05-02T04:03:23;97979.00;;;10.99;76.63
19884;BME280;10104;50.732;10.174;2023-05-02T04:05:47;97983.75;;;11.03;76.74
19884;BME280;10104;50.732;10.174;2023-05-02T04:08:08;97985.31;;;10.98;76.72
19884;BME280;10104;50.732;10.174;2023-05-02T04:10:31;97988.41;;;11.01;76.70
19884;BME280;10104;50.732;10.174;2023-05-02T04:12:52;97997.09;;;10.74;78.03
19884;BME280;10104;50.732;10.174;2023-05-02T04:15:14;97999.16;;;10.78;76.98
19884;BME280;10104;50.732;10.174;2023-05-02T04:17:36;98005.94;;;10.66;77.46
19884;BME280;10104;50.732;10.174;2023-05-02T04:19:58;98009.22;;;10.68;76.58
19884;BME280;10104;50.732;10.174;2023-05-02T04:22:22;98010.50;;;10.72;76.31
19884;BME280;10104;50.732;10.174;2023-05-02T04:24:44;98008.69;;;10.73;75.94
19884;BME280;10104;50.732;10.174;2023-05-02T04:27:05;98024.50;;;10.66;75.98
19884;BME280;10104;50.732;10.174;2023-05-02T04:29:28;98020.56;;;10.62;76.22
19884;BME280;10104;50.732;10.174;2023-05-02T04:31:50;98030.44;;;10.53;77.65
19884;BME280;10104;50.732;10.174;2023-05-02T04:34:11;98030.53;;;10.60;77.03
19884;BME280;10104;50.732;10.174;2023-05-02T04:36:33;98033.44;;;10.50;78.31
19884;BME280;10104;50.732;10.174;2023-05-02T04:38:55;98047.78;;;10.41;78.89
19884;BME280;10104;50.732;10.174;2023-05-02T04:41:16;98047.25;;;10.46;78.26
19884;BME280;10104;50.732;10.174;2023-05-02T04:43:38;98052.19;;;10.49;78.91
19884;BME280;10104;50.732;10.174;2023-05-02T04:46:00;98050.78;;;10.53;78.92
19884;BME280;10104;50.732;10.174;2023-05-02T04:48:21;98058.56;;;10.40;80.91
19884;BME280;10104;50.732;10.174;2023-05-02T04:50:44;98057.53;;;10.55;79.47
19884;BME280;10104;50.732;10.174;2023-05-02T04:53:06;98063.31;;;10.59;79.31
19884;BME280;10104;50.732;10.174;2023-05-02T04:55:27;98059.00;;;10.73;79.04
19884;BME280;10104;50.732;10.174;2023-05-02T04:57:49;98060.81;;;10.72;80.72
19884;BME280;10104;50.732;10.174;2023-05-02T05:00:12;98078.19;;;10.60;82.60
19884;BME280;10104;50.732;10.174;2023-05-02T05:02:34;98085.75;;;10.63;82.40
19884;BME280;10104;50.732;10.174;2023-05-02T05:04:55;98088.84;;;10.81;81.71
19884;BME280;10104;50.732;10.174;2023-05-02T05:07:17;98092.03;;;10.91;81.21
19884;BME280;10104;50.732;10.174;2023-05-02T05:09:38;98091.50;;;11.17;79.78
19884;BME280;10104;50.732;10.174;2023-05-02T05:12:00;98090.59;;;11.25;81.16
19884;BME280;10104;50.732;10.174;2023-05-02T05:14:22;98094.28;;;11.45;79.71
19884;BME280;10104;50.732;10.174;2023-05-02T05:16:44;98096.06;;;11.59;80.11
19884;BME280;10104;50.732;10.174;2023-05-02T05:19:06;98104.03;;;11.81;79.18
19884;BME280;10104;50.732;10.174;2023-05-02T05:21:27;98100.78;;;11.85;81.52
19884;BME280;10104;50.732;10.174;2023-05-02T05:23:49;98108.03;;;11.98;81.05
19884;BME280;10104;50.732;10.174;2023-05-02T05:26:12;98099.47;;;12.24;79.98
19884;BME280;10104;50.732;10.174;2023-05-02T05:28:36;98108.34;;;12.37;78.97
19884;BME280;10104;50.732;10.174;2023-05-02T05:30:57;98112.72;;;12.45;78.90
19884;BME280;10104;50.732;10.174;2023-05-02T05:33:24;98121.13;;;12.55;77.90
19884;BME280;10104;50.732;10.174;2023-05-02T05:35:46;98117.53;;;12.35;79.79
19884;BME280;10104;50.732;10.174;2023-05-02T05:38:07;98128.63;;;12.45;78.86
19884;BME280;10104;50.732;10.174;2023-05-02T05:40:29;98127.03;;;12.50;78.68
19884;BME280;10104;50.732;10.174;2023-05-02T05:42:50;98129.59;;;12.65;77.96
19884;BME280;10104;50.732;10.174;2023-05-02T05:45:12;98129.97;;;12.62;79.26
19884;BME280;10104;50.732;10.174;2023-05-02T05:47:34;98135.38;;;12.47;82.19
19884;BME280;10104;50.732;10.174;2023-05-02T05:49:55;98137.38;;;12.39;83.45
19884;BME280;10104;50.732;10.174;2023-05-02T05:52:17;98139.44;;;12.71;80.69
19884;BME280;10104;50.732;10.174;2023-05-02T05:54:38;98149.97;;;12.58;83.48
19884;BME280;10104;50.732;10.174;2023-05-02T05:57:00;98148.06;;;12.80;82.04
19884;BME280;10104;50.732;10.174;2023-05-02T05:59:21;98148.59;;;13.03;80.05
19884;BME280;10104;50.732;10.174;2023-05-02T06:01:43;98151.97;;;13.18;79.37
19884;BME280;10104;50.732;10.174;2023-05-02T06:04:04;98154.03;;;13.23;79.98
19884;BME280;10104;50.732;10.174;2023-05-02T06:06:27;98158.00;;;12.99;83.82
19884;BME280;10104;50.732;10.174;2023-05-02T06:08:49;98163.56;;;13.11;82.06
19884;BME280;10104;50.732;10.174;2023-05-02T06:11:10;98166.91;;;13.19;80.89
19884;BME280;10104;50.732;10.174;2023-05-02T06:13:32;98174.31;;;13.30;80.44
19884;BME280;10104;50.732;10.174;2023-05-02T06:15:53;98175.56;;;13.34;80.94
19884;BME280;10104;50.732;10.174;2023-05-02T06:18:15;98180.72;;;13.43;81.03
19884;BME280;10104;50.732;10.174;2023-05-02T06:20:37;98186.44;;;13.46;82.38
19884;BME280;10104;50.732;10.174;2023-05-02T06:22:58;98184.88;;;13.65;80.89
19884;BME280;10104;50.732;10.174;2023-05-02T06:25:19;98189.25;;;13.86;79.44
19884;BME280;10104;50.732;10.174;2023-05-02T06:27:41;98192.13;;;14.04;79.27
19884;BME280;10104;50.732;10.174;2023-05-02T06:30:03;98198.47;;;13.96;81.01
19884;BME280;10104;50.732;10.174;2023-05-02T06:32:29;98196.84;;;14.02;81.71
19884;BME280;10104;50.732;10.174;2023-05-02T06:34:50;98200.16;;;14.24;79.59
19884;BME280;10104;50.732;10.174;2023-05-02T06:37:12;98198.09;;;14.32;78.97
19884;BME280;10104;50.732;10.174;2023-05-02T06:39:33;98205.75;;;14.48;78.05
19884;BME280;10104;50.732;10.174;2023-05-02T06:41:58;98211.28;;;14.60;77.37
19884;BME280;10104;50.732;10.174;2023-05-02T06:44:20;98213.31;;;14.78;76.30
19884;BME280;10104;50.732;10.174;2023-05-02T06:46:41;98215.34;;;14.89;75.61
19884;BME280;10104;50.732;10.174;2023-05-02T06:49:03;98210.59;;;15.17;73.86
19884;BME280;10104;50.732;10.174;2023-05-02T06:51:25;98214.06;;;15.24;73.46
19884;BME280;10104;50.732;10.174;2023-05-02T06:53:47;98217.72;;;15.30;72.97
19884;BME280;10104;50.732;10.174;2023-05-02T06:56:09;98219.56;;;15.36;72.70
19884;BME280;10104;50.732;10.174;2023-05-02T06:58:31;98219.75;;;15.34;72.25
19884;BME280;10104;50.732;10.174;2023-05-02T07:00:52;98228.13;;;15.51;71.54
19884;BME280;10104;50.732;10.174;2023-05-02T07:03:13;98236.28;;;15.69;70.30
19884;BME280;10104;50.732;10.174;2023-05-02T07:05:35;98233.75;;;15.81;69.96
19884;BME280;10104;50.732;10.174;2023-05-02T07:07:57;98237.00;;;15.90;68.90
19884;BME280;10104;50.732;10.174;2023-05-02T07:10:18;98240.91;;;15.87;68.74
19884;BME280;10104;50.732;10.174;2023-05-02T07:12:40;98237.44;;;15.87;69.16
19884;BME280;10104;50.732;10.174;2023-05-02T07:15:01;98237.50;;;16.11;68.83
19884;BME280;10104;50.732;10.174;2023-05-02T07:17:23;98246.56;;;16.10;68.97
19884;BME280;10104;50.732;10.174;2023-05-02T07:19:45;98241.53;;;16.27;67.50
19884;BME280;10104;50.732;10.174;2023-05-02T07:22:07;98243.75;;;16.30;68.10
19884;BME280;10104;50.732;10.174;2023-05-02T07:24:29;98241.81;;;16.44;66.75
19884;BME280;10104;50.732;10.174;2023-05-02T07:26:50;98247.91;;;16.26;65.91
19884;BME280;10104;50.732;10.174;2023-05-02T07:29:12;98247.78;;;16.14;67.79
19884;BME280;10104;50.732;10.174;2023-05-02T07:31:33;98249.00;;;16.43;66.34
19884;BME280;10104;50.732;10.174;2023-05-02T07:33:55;98248.09;;;16.63;65.75
19884;BME280;10104;50.732;10.174;2023-05-02T07:36:17;98245.34;;;16.94;63.42
19884;BME280;10104;50.732;10.174;2023-05-02T07:38:38;98248.41;;;17.16;62.12
19884;BME280;10104;50.732;10.174;2023-05-02T07:41:00;98250.53;;;17.32;63.78
19884;BME280;10104;50.732;10.174;2023-05-02T07:43:21;98252.09;;;17.58;62.33
19884;BME280;10104;50.732;10.174;2023-05-02T07:45:43;98255.19;;;17.61;62.29
19884;BME280;10104;50.732;10.174;2023-05-02T07:48:04;98251.16;;;17.52;61.22
19884;BME280;10104;50.732;10.174;2023-05-02T07:50:26;98253.34;;;17.55;61.21
19884;BME280;10104;50.732;10.174;2023-05-02T07:52:48;98249.66;;;17.56;59.91
19884;BME280;10104;50.732;10.174;2023-05-02T07:55:09;98257.25;;;17.96;60.37
19884;BME280;10104;50.732;10.174;2023-05-02T07:57:31;98252.34;;;18.34;58.43
19884;BME280;10104;50.732;10.174;2023-05-02T07:59:52;98259.31;;;18.24;56.43
19884;BME280;10104;50.732;10.174;2023-05-02T08:02:14;98255.41;;;18.38;57.44
19884;BME280;10104;50.732;10.174;2023-05-02T08:04:38;98266.75;;;18.22;56.05
19884;BME280;10104;50.732;10.174;2023-05-02T08:07:00;98275.41;;;17.75;58.73
19884;BME280;10104;50.732;10.174;2023-05-02T08:09:21;98274.63;;;17.50;58.65
19884;BME280;10104;50.732;10.174;2023-05-02T08:11:43;98279.75;;;17.15;59.75
19884;BME280;10104;50.732;10.174;2023-05-02T08:14:05;98281.94;;;17.00;60.88
19884;BME280;10104;50.732;10.174;2023-05-02T08:16:26;98286.84;;;16.78;61.52
19884;BME280;10104;50.732;10.174;2023-05-02T08:18:48;98293.63;;;16.43;63.52
19884;BME280;10104;50.732;10.174;2023-05-02T08:21:10;98298.03;;;16.31;61.94
19884;BME280;10104;50.732;10.174;2023-05-02T08:23:31;98298.03;;;16.31;61.29
19884;BME280;10104;50.732;10.174;2023-05-02T08:25:53;98284.56;;;16.82;61.54
19884;BME280;10104;50.732;10.174;2023-05-02T08:28:14;98294.19;;;17.32;57.86
19884;BME280;10104;50.732;10.174;2023-05-02T08:30:36;98291.03;;;17.78;57.91
19884;BME280;10104;50.732;10.174;2023-05-02T08:32:57;98293.28;;;17.82;55.80
19884;BME280;10104;50.732;10.174;2023-05-02T08:35:19;98293.28;;;17.82;56.83
19884;BME280;10104;50.732;10.174;2023-05-02T08:37:40;98294.16;;;17.75;58.51
19884;BME280;10104;50.732;10.174;2023-05-02T08:40:02;98301.41;;;17.50;57.80
19884;BME280;10104;50.732;10.174;2023-05-02T08:42:24;98298.25;;;17.35;56.69
19884;BME280;10104;50.732;10.174;2023-05-02T08:44:47;98297.00;;;17.19;56.31
19884;BME280;10104;50.732;10.174;2023-05-02T08:47:12;98305.13;;;17.06;56.99
19884;BME280;10104;50.732;10.174;2023-05-02T08:49:35;98312.44;;;16.92;57.76
19884;BME280;10104;50.732;10.174;2023-05-02T08:51:58;98316.31;;;16.72;60.25
19884;BME280;10104;50.732;10.174;2023-05-02T08:54:20;98319.25;;;16.64;61.37
19884;BME280;10104;50.732;10.174;2023-05-02T08:56:42;98322.94;;;16.63;64.60
19884;BME280;10104;50.732;10.174;2023-05-02T08:59:05;98331.91;;;16.37;66.01
19884;BME280;10104;50.732;10.174;2023-05-02T09:01:29;98328.00;;;16.39;64.46
19884;BME280;10104;50.732;10.174;2023-05-02T09:03:51;98327.41;;;16.75;63.80
19884;BME280;10104;50.732;10.174;2023-05-02T09:06:17;98325.59;;;16.94;64.81
19884;BME280;10104;50.732;10.174;2023-05-02T09:08:40;98322.94;;;16.94;64.79
19884;BME280;10104;50.732;10.174;2023-05-02T09:11:03;98333.91;;;17.11;65.62
19884;BME280;10104;50.732;10.174;2023-05-02T09:13:49;98322.25;;;17.23;64.39
19884;BME280;10104;50.732;10.174;2023-05-02T09:16:22;98323.63;;;17.94;62.82
19884;BME280;10104;50.732;10.174;2023-05-02T09:18:47;98317.31;;;18.36;60.42
19884;BME280;10104;50.732;10.174;2023-05-02T09:21:11;98325.75;;;18.70;58.80
19884;BME280;10104;50.732;10.174;2023-05-02T09:23:34;98325.06;;;18.74;57.15
19884;BME280;10104;50.732;10.174;2023-05-02T09:25:57;98320.81;;;18.37;56.77
19884;BME280;10104;50.732;10.174;2023-05-02T09:28:19;98323.34;;;18.02;57.38
19884;BME280;10104;50.732;10.174;2023-05-02T09:30:40;98323.16;;;17.97;57.57
19884;BME280;10104;50.732;10.174;2023-05-02T09:33:02;98334.50;;;17.62;58.27
19884;BME280;10104;50.732;10.174;2023-05-02T09:35:24;98339.16;;;17.67;58.89
19884;BME280;10104;50.732;10.174;2023-05-02T09:37:46;98331.13;;;17.24;58.48
19884;BME280;10104;50.732;10.174;2023-05-02T09:40:08;98338.56;;;17.22;60.35
19884;BME280;10104;50.732;10.174;2023-05-02T09:42:30;98343.56;;;17.36;58.72
19884;BME280;10104;50.732;10.174;2023-05-02T09:44:51;98338.06;;;17.93;54.33
19884;BME280;10104;50.732;10.174;2023-05-02T09:47:23;98330.59;;;18.61;53.55
19884;BME280;10104;50.732;10.174;2023-05-02T09:49:45;98331.78;;;19.30;52.62
19884;BME280;10104;50.732;10.174;2023-05-02T09:52:14;98337.88;;;19.25;52.86
19884;BME280;10104;50.732;10.174;2023-05-02T09:54:36;98344.78;;;18.80;51.06
19884;BME280;10104;50.732;10.174;2023-05-02T09:56:58;98348.78;;;18.11;49.69
19884;BME280;10104;50.732;10.174;2023-05-02T09:59:19;98351.94;;;17.90;51.30
19884;BME280;10104;50.732;10.174;2023-05-02T10:01:41;98351.91;;;17.47;52.04
19884;BME280;10104;50.732;10.174;2023-05-02T10:04:03;98355.41;;;17.47;52.11
19884;BME280;10104;50.732;10.174;2023-05-02T10:06:25;98352.91;;;17.52;53.01
19884;BME280;10104;50.732;10.174;2023-05-02T10:08:48;98360.53;;;17.73;51.57
19884;BME280;10104;50.732;10.174;2023-05-02T10:11:11;98342.88;;;18.39;51.56
19884;BME280;10104;50.732;10.174;2023-05-02T10:13:36;98345.53;;;19.10;49.22
19884;BME280;10104;50.732;10.174;2023-05-02T10:16:00;98337.81;;;19.95;50.04
19884;BME280;10104;50.732;10.174;2023-05-02T10:18:27;98345.03;;;20.18;46.50
19884;BME280;10104;50.732;10.174;2023-05-02T10:20:58;98348.50;;;20.42;46.15
19884;BME280;10104;50.732;10.174;2023-05-02T10:23:20;98345.56;;;20.32;44.80
19884;BME280;10104;50.732;10.174;2023-05-02T10:25:42;98349.19;;;20.26;43.89
19884;BME280;10104;50.732;10.174;2023-05-02T10:28:04;98343.66;;;20.04;44.36
19884;BME280;10104;50.732;10.174;2023-05-02T10:30:26;98346.28;;;19.87;43.30
19884;BME280;10104;50.732;10.174;2023-05-02T10:32:48;98346.88;;;19.66;43.95
19884;BME280;10104;50.732;10.174;2023-05-02T10:35:12;98351.09;;;19.73;44.70
19884;BME280;10104;50.732;10.174;2023-05-02T10:37:35;98347.31;;;19.63;44.29
19884;BME280;10104;50.732;10.174;2023-05-02T10:39:57;98349.69;;;19.59;44.98
19884;BME280;10104;50.732;10.174;2023-05-02T10:42:19;98345.94;;;19.60;44.49
19884;BME280;10104;50.732;10.174;2023-05-02T10:44:41;98350.22;;;19.15;45.82
19884;BME280;10104;50.732;10.174;2023-05-02T10:47:24;98347.97;;;18.88;45.81
19884;BME280;10104;50.732;10.174;2023-05-02T10:49:58;98345.75;;;18.55;45.83
19884;BME280;10104;50.732;10.174;2023-05-02T10:54:49;98342.06;;;18.68;47.77
19884;BME280;10104;50.732;10.174;2023-05-02T10:57:11;98349.72;;;18.94;48.57
19884;BME280;10104;50.732;10.174;2023-05-02T10:59:40;98341.50;;;19.54;47.85
19884;BME280;10104;50.732;10.174;2023-05-02T11:02:06;98347.31;;;19.86;46.30
19884;BME280;10104;50.732;10.174;2023-05-02T11:05:05;98344.66;;;19.74;43.97
19884;BME280;10104;50.732;10.174;2023-05-02T11:07:27;98338.72;;;19.49;43.90
19884;BME280;10104;50.732;10.174;2023-05-02T11:09:49;98339.97;;;19.35;43.28
19884;BME280;10104;50.732;10.174;2023-05-02T11:15:10;98348.72;;;18.47;46.15
19884;BME280;10104;50.732;10.174;2023-05-02T11:20:19;98356.81;;;17.93;49.81
19884;BME280;10104;50.732;10.174;2023-05-02T11:22:41;98367.06;;;17.77;49.67
19884;BME280;10104;50.732;10.174;2023-05-02T11:25:28;98357.81;;;17.55;51.09
19884;BME280;10104;50.732;10.174;2023-05-02T11:27:51;98361.09;;;17.57;51.70
19884;BME280;10104;50.732;10.174;2023-05-02T11:30:12;98373.50;;;17.52;52.20
19884;BME280;10104;50.732;10.174;2023-05-02T11:35:27;98366.72;;;17.74;52.93
19884;BME280;10104;50.732;10.174;2023-05-02T11:37:55;98362.72;;;18.01;51.79
19884;BME280;10104;50.732;10.174;2023-05-02T11:40:17;98368.88;;;18.68;51.69
19884;BME280;10104;50.732;10.174;2023-05-02T11:42:40;98364.91;;;19.01;50.31
19884;BME280;10104;50.732;10.174;2023-05-02T11:45:02;98364.56;;;19.20;50.35
19884;BME280;10104;50.732;10.174;2023-05-02T11:47:25;98372.41;;;19.33;49.87
19884;BME280;10104;50.732;10.174;2023-05-02T11:49:47;98372.50;;;19.27;47.87
19884;BME280;10104;50.732;10.174;2023-05-02T11:52:09;98377.78;;;18.80;47.82
19884;BME280;10104;50.732;10.174;2023-05-02T11:54:31;98380.47;;;18.50;50.24
19884;BME280;10104;50.732;10.174;2023-05-02T11:56:52;98382.94;;;18.15;50.00
19884;BME280;10104;50.732;10.174;2023-05-02T11:59:14;98389.94;;;17.55;51.39
19884;BME280;10104;50.732;10.174;2023-05-02T12:01:35;98399.31;;;17.21;51.33
19884;BME280;10104;50.732;10.174;2023-05-02T12:04:04;98397.75;;;17.07;52.74
19884;BME280;10104;50.732;10.174;2023-05-02T12:06:28;98405.22;;;16.98;52.70
19884;BME280;10104;50.732;10.174;2023-05-02T12:08:49;98397.91;;;17.12;53.13
19884;BME280;10104;50.732;10.174;2023-05-02T12:11:15;98398.94;;;17.11;53.24
19884;BME280;10104;50.732;10.174;2023-05-02T12:13:46;98402.41;;;17.43;53.19
19884;BME280;10104;50.732;10.174;2023-05-02T12:16:08;98409.97;;;17.53;52.50
19884;BME280;10104;50.732;10.174;2023-05-02T12:18:31;98404.75;;;17.83;51.56
19884;BME280;10104;50.732;10.174;2023-05-02T12:20:54;98404.91;;;18.06;50.55
19884;BME280;10104;50.732;10.174;2023-05-02T12:23:16;98402.75;;;18.33;50.11
19884;BME280;10104;50.732;10.174;2023-05-02T12:25:40;98403.22;;;18.78;48.29
19884;BME280;10104;50.732;10.174;2023-05-02T12:28:02;98408.25;;;19.27;48.85
19884;BME280;10104;50.732;10.174;2023-05-02T12:30:24;98411.94;;;20.03;47.69
19884;BME280;10104;50.732;10.174;2023-05-02T12:32:55;98421.00;;;20.77;45.14
19884;BME280;10104;50.732;10.174;2023-05-02T12:35:20;98414.97;;;20.86;43.49
19884;BME280;10104;50.732;10.174;2023-05-02T12:37:43;98425.59;;;20.01;42.46
19884;BME280;10104;50.732;10.174;2023-05-02T12:40:14;98436.16;;;19.38;41.44
19884;BME280;10104;50.732;10.174;2023-05-02T12:42:36;98436.84;;;18.80;41.45
19884;BME280;10104;50.732;10.174;2023-05-02T12:44:58;98442.03;;;18.64;42.65
19884;BME280;10104;50.732;10.174;2023-05-02T12:47:20;98439.97;;;18.23;45.63
19884;BME280;10104;50.732;10.174;2023-05-02T12:49:53;98438.84;;;17.75;47.02
19884;BME280;10104;50.732;10.174;2023-05-02T12:52:20;98453.94;;;17.38;48.64
19884;BME280;10104;50.732;10.174;2023-05-02T12:54:41;98459.06;;;17.15;50.84